Time;durP1;ratioP1;P1;durP2;ratioP2;P2;SDS_P1;SDS_P2;PMS_P1;PMS_P2;Temp;Humidity;BMP_temperature;BMP_pressure;BME280_temperature;BME280_humidity;BME280_pressure;Samples;Min_cycle;Max_cycle;Signal;HPM_P1;HPM_P2
2022/07/31 00:00:31;;;;;;;4.07;3.03;;;18.30;99.90;;;;;;6077345;23;20196;-87
2022/07/31 00:02:57;;;;;;;3.20;2.90;;;18.20;99.90;;;;;;6125938;23;20156;-87
2022/07/31 00:05:24;;;;;;;3.93;2.77;;;18.20;99.90;;;;;;6100966;23;20207;-86
2022/07/31 00:07:52;;;;;;;2.63;2.43;;;18.20;99.90;;;;;;6077332;23;20192;-88
2022/07/31 00:10:18;;;;;;;3.70;3.40;;;18.20;99.90;;;;;;6125473;23;20198;-86
2022/07/31 00:12:43;;;;;;;6.57;3.30;;;18.20;99.90;;;;;;6125096;23;20215;-86
2022/07/31 00:15:11;;;;;;;4.77;3.53;;;18.10;99.90;;;;;;6076663;23;20164;-86
2022/07/31 00:17:38;;;;;;;4.77;3.37;;;18.10;99.90;;;;;;6125558;23;20184;-86
2022/07/31 00:20:04;;;;;;;3.20;2.90;;;18.10;99.90;;;;;;6100731;23;20211;-86
2022/07/31 00:22:30;;;;;;;5.60;3.93;;;18.10;99.90;;;;;;6125050;23;20187;-86
2022/07/31 00:24:56;;;;;;;3.97;3.63;;;18.10;99.90;;;;;;6076146;23;20203;-87
2022/07/31 00:27:22;;;;;;;3.90;3.50;;;18.10;99.90;;;;;;6076919;23;20167;-86
2022/07/31 00:29:48;;;;;;;3.93;3.33;;;18.10;99.90;;;;;;6125693;23;20215;-86
2022/07/31 00:32:14;;;;;;;4.70;4.23;;;18.10;99.90;;;;;;6100549;23;20650;-87
2022/07/31 00:34:44;;;;;;;5.03;3.73;;;18.10;99.90;;;;;;6124837;23;20196;-85
2022/07/31 00:37:09;;;;;;;4.60;3.13;;;18.10;99.90;;;;;;6100973;23;20239;-87
2022/07/31 00:39:35;;;;;;;4.53;3.73;;;18.10;99.90;;;;;;6100245;23;20183;-86
2022/07/31 00:42:01;;;;;;;6.93;3.77;;;18.00;99.90;;;;;;6125560;23;20152;-87
2022/07/31 00:44:30;;;;;;;4.20;3.83;;;18.00;99.90;;;;;;6075999;23;20247;-86
2022/07/31 00:46:56;;;;;;;7.57;3.60;;;18.00;99.90;;;;;;6124276;23;20518;-87
2022/07/31 00:49:22;;;;;;;6.07;3.70;;;17.90;99.90;;;;;;6125058;23;20194;-86
2022/07/31 00:51:49;;;;;;;5.90;3.97;;;17.90;99.90;;;;;;6124427;23;20279;-86
2022/07/31 00:54:16;;;;;;;5.33;3.20;;;17.90;99.90;;;;;;6124691;23;20156;-86
2022/07/31 00:56:44;;;;;;;6.17;3.60;;;17.90;99.90;;;;;;6101306;23;20162;-86
2022/07/31 00:59:11;;;;;;;9.57;3.57;;;17.90;99.90;;;;;;6124086;23;20239;-86
2022/07/31 01:01:37;;;;;;;4.97;3.50;;;17.90;99.90;;;;;;6124216;23;20223;-86
2022/07/31 01:04:06;;;;;;;5.33;3.67;;;17.90;99.90;;;;;;6124503;23;20637;-86
2022/07/31 01:06:34;;;;;;;3.77;3.33;;;17.90;99.90;;;;;;6124871;23;20196;-86
2022/07/31 01:09:00;;;;;;;3.33;2.90;;;17.90;99.90;;;;;;6124673;23;20679;-86
2022/07/31 01:11:54;;;;;;;4.70;3.10;;;17.80;99.90;;;;;;6100056;23;20275;-86
2022/07/31 01:14:22;;;;;;;5.83;2.83;;;17.90;99.90;;;;;;6124501;23;20199;-85
2022/07/31 01:16:52;;;;;;;3.20;2.83;;;17.90;99.90;;;;;;6124657;23;20736;-86
2022/07/31 01:19:32;;;;;;;6.00;3.40;;;17.90;99.90;;;;;;6124431;23;20207;-86
2022/07/31 01:22:06;;;;;;;4.37;3.80;;;17.90;99.90;;;;;;6124428;23;20210;-86
2022/07/31 01:25:03;;;;;;;4.40;3.83;;;17.90;99.90;;;;;;6124594;23;20199;-86
2022/07/31 01:27:54;;;;;;;2.97;2.70;;;17.90;99.90;;;;;;6124724;23;20199;-85
2022/07/31 01:30:24;;;;;;;4.60;3.87;;;17.90;99.90;;;;;;6124706;23;20152;-86
2022/07/31 01:32:52;;;;;;;5.57;4.03;;;17.90;99.90;;;;;;6126347;23;20140;-86
2022/07/31 01:35:25;;;;;;;4.97;3.33;;;17.90;99.90;;;;;;6100464;23;20200;-87
2022/07/31 01:37:59;;;;;;;6.07;3.63;;;17.90;99.90;;;;;;6124480;23;20283;-86
2022/07/31 01:40:34;;;;;;;3.33;3.00;;;17.80;99.90;;;;;;6124742;23;20207;-86
2022/07/31 01:43:11;;;;;;;4.10;3.70;;;17.80;99.90;;;;;;6122013;23;20202;-87
2022/07/31 01:45:39;;;;;;;5.63;3.33;;;17.70;99.90;;;;;;6071867;23;20200;-87
2022/07/31 01:48:09;;;;;;;4.60;3.40;;;17.70;99.90;;;;;;6071221;23;20161;-86
2022/07/31 01:50:37;;;;;;;4.33;3.70;;;17.60;99.90;;;;;;6071693;23;20168;-86
2022/07/31 01:53:05;;;;;;;4.73;3.83;;;17.60;99.90;;;;;;6070970;23;20537;-86
2022/07/31 01:55:33;;;;;;;10.73;4.50;;;17.50;99.90;;;;;;6047474;23;20200;-86
2022/07/31 01:58:00;;;;;;;4.27;3.87;;;17.50;99.90;;;;;;6070944;23;20207;-87
2022/07/31 02:00:29;;;;;;;8.17;4.10;;;17.60;99.90;;;;;;6071332;23;20254;-86
2022/07/31 02:02:57;;;;;;;4.50;3.87;;;17.70;99.90;;;;;;6071520;23;20236;-86
2022/07/31 02:05:33;;;;;;;5.30;4.37;;;17.70;99.90;;;;;;6071455;23;20200;-86
2022/07/31 02:08:06;;;;;;;8.33;4.03;;;17.80;99.90;;;;;;6046486;23;20205;-87
2022/07/31 02:10:36;;;;;;;5.53;3.80;;;17.80;99.90;;;;;;6048107;23;20203;-87
2022/07/31 02:13:04;;;;;;;6.33;4.33;;;17.80;99.90;;;;;;6057958;23;20196;-87
2022/07/31 02:15:33;;;;;;;6.60;3.63;;;17.90;99.90;;;;;;6071686;23;20192;-86
2022/07/31 02:18:00;;;;;;;5.57;3.80;;;17.90;99.90;;;;;;6071144;23;20248;-88
2022/07/31 02:20:32;;;;;;;7.80;4.47;;;17.90;99.90;;;;;;6071264;23;20701;-87
2022/07/31 02:22:58;;;;;;;5.67;4.23;;;17.90;99.90;;;;;;6071369;23;20243;-87
2022/07/31 02:25:27;;;;;;;4.40;3.83;;;17.90;99.90;;;;;;6070982;23;20243;-87
2022/07/31 02:27:56;;;;;;;6.07;4.50;;;17.90;99.90;;;;;;6071161;23;20511;-87
2022/07/31 02:30:25;;;;;;;4.90;3.87;;;17.90;99.90;;;;;;6071027;23;20162;-87
2022/07/31 02:32:51;;;;;;;5.37;4.33;;;17.90;99.90;;;;;;6071624;23;20666;-87
2022/07/31 02:35:18;;;;;;;6.03;4.30;;;17.80;99.90;;;;;;6024285;23;20192;-87
2022/07/31 02:37:46;;;;;;;6.47;4.47;;;17.80;99.90;;;;;;6025212;23;20541;-86
2022/07/31 02:40:13;;;;;;;4.67;3.87;;;17.70;99.90;;;;;;6049350;23;20196;-87
2022/07/31 02:42:40;;;;;;;5.57;3.60;;;17.70;99.90;;;;;;6072941;23;20192;-90
2022/07/31 02:45:08;;;;;;;4.77;3.63;;;17.70;99.90;;;;;;6098267;23;20204;-87
2022/07/31 02:47:35;;;;;;;4.63;3.20;;;17.70;99.90;;;;;;6126500;23;20533;-87
2022/07/31 02:50:03;;;;;;;5.03;3.90;;;17.70;99.90;;;;;;6125330;23;20506;-86
2022/07/31 02:52:29;;;;;;;4.53;4.00;;;17.70;99.90;;;;;;6127169;23;20203;-85
2022/07/31 02:54:57;;;;;;;4.43;4.03;;;17.70;99.90;;;;;;6101520;23;20254;-85
2022/07/31 02:57:23;;;;;;;3.60;3.30;;;17.70;99.90;;;;;;6125171;23;20171;-86
2022/07/31 02:59:48;;;;;;;4.63;3.93;;;17.70;99.90;;;;;;6102168;23;20160;-86
2022/07/31 03:02:14;;;;;;;6.77;4.00;;;17.70;99.90;;;;;;6125491;23;20532;-86
2022/07/31 03:04:40;;;;;;;5.27;4.33;;;17.70;99.90;;;;;;6077266;23;20195;-86
2022/07/31 03:07:06;;;;;;;4.83;4.30;;;17.70;99.90;;;;;;6127043;23;20192;-86
2022/07/31 03:09:31;;;;;;;8.50;4.57;;;17.70;99.90;;;;;;6077603;23;20267;-86
2022/07/31 03:11:58;;;;;;;4.50;4.00;;;17.60;99.90;;;;;;6126065;23;20175;-86
2022/07/31 03:14:25;;;;;;;6.47;3.63;;;17.50;99.90;;;;;;6101075;23;20196;-85
2022/07/31 03:16:52;;;;;;;5.87;4.57;;;17.50;99.90;;;;;;6101182;23;20192;-85
2022/07/31 03:19:22;;;;;;;8.33;4.37;;;17.50;99.90;;;;;;6125705;23;20211;-86
2022/07/31 03:21:48;;;;;;;5.43;3.83;;;17.50;99.90;;;;;;6101437;23;20286;-86
2022/07/31 03:24:14;;;;;;;4.23;3.67;;;17.50;99.90;;;;;;6100922;23;20250;-86
2022/07/31 03:26:41;;;;;;;8.70;3.97;;;17.50;99.90;;;;;;6125831;23;20164;-85
2022/07/31 03:29:07;;;;;;;8.37;4.87;;;17.50;99.90;;;;;;6100494;23;20196;-85
2022/07/31 03:31:33;;;;;;;7.20;4.70;;;17.50;99.90;;;;;;6126879;23;20224;-86
2022/07/31 03:34:00;;;;;;;4.43;3.67;;;17.50;99.90;;;;;;6101161;23;20247;-86
2022/07/31 03:36:26;;;;;;;5.30;3.83;;;17.50;99.90;;;;;;6124932;23;20211;-85
2022/07/31 03:38:52;;;;;;;6.43;4.23;;;17.50;99.90;;;;;;6126030;23;20180;-85
2022/07/31 03:41:21;;;;;;;5.67;4.60;;;17.50;99.90;;;;;;6100507;23;20199;-85
2022/07/31 03:43:49;;;;;;;5.17;4.67;;;17.50;99.90;;;;;;6100675;23;20614;-85
2022/07/31 03:46:20;;;;;;;6.43;5.03;;;17.50;99.90;;;;;;6100526;23;20680;-85
2022/07/31 03:48:50;;;;;;;6.43;4.37;;;17.50;99.90;;;;;;6124866;23;20192;-85
2022/07/31 03:51:16;;;;;;;6.63;4.63;;;17.50;99.90;;;;;;6124860;23;20159;-85
2022/07/31 03:53:48;;;;;;;7.27;4.87;;;17.50;99.90;;;;;;6126037;23;20152;-85
2022/07/31 03:56:18;;;;;;;6.87;4.47;;;17.50;99.90;;;;;;6124595;23;20196;-85
2022/07/31 03:58:50;;;;;;;6.83;4.90;;;17.50;99.90;;;;;;6124662;23;20338;-86
2022/07/31 04:01:22;;;;;;;6.37;4.17;;;17.50;99.90;;;;;;6124921;23;20200;-85
2022/07/31 04:04:02;;;;;;;5.73;4.43;;;17.50;99.90;;;;;;6124622;23;20274;-86
2022/07/31 04:06:34;;;;;;;5.77;4.10;;;17.50;99.90;;;;;;6125388;23;20548;-85
2022/07/31 04:09:00;;;;;;;7.97;5.47;;;17.50;99.90;;;;;;6077171;23;20160;-85
2022/07/31 04:11:27;;;;;;;6.23;4.50;;;17.50;99.90;;;;;;6124499;23;20199;-85
2022/07/31 04:13:53;;;;;;;5.47;4.63;;;17.50;99.90;;;;;;6124757;23;20239;-85
2022/07/31 04:21:34;;;;;;;6.13;4.27;;;17.50;99.90;;;;;;6038138;23;20182;-86
2022/07/31 04:25:22;;;;;;;7.53;4.50;;;17.50;99.90;;;;;;5924280;24;20211;-86
2022/07/31 04:39:57;;;;;;;4.83;3.90;;;17.70;99.90;;;;;;5794815;24;20253;-86
2022/07/31 05:33:07;;;;;;;;;;;;;;;;;;;;;
2022/07/31 05:48:45;;;;;;;6.93;4.83;;;18.90;99.90;;;;;;5854596;24;20283;-86
2022/07/31 06:00:00;;;;;;;6.40;5.10;;;19.30;99.90;;;;;;5863077;24;20724;-85
2022/07/31 06:03:44;;;;;;;;;;;;;;;;;;;;;
2022/07/31 06:17:41;;;;;;;7.67;6.07;;;19.70;99.90;;;;;;5998448;23;20268;-85
2022/07/31 06:20:08;;;;;;;9.40;5.67;;;19.80;99.90;;;;;;6042777;23;20232;-85
2022/07/31 06:22:35;;;;;;;7.33;6.13;;;19.90;99.90;;;;;;6065413;23;20561;-85
2022/07/31 06:25:01;;;;;;;9.30;5.83;;;20.00;99.90;;;;;;6125869;23;20199;-85
2022/07/31 06:27:26;;;;;;;7.37;5.97;;;20.00;99.90;;;;;;6125345;23;20215;-85
2022/07/31 06:29:52;;;;;;;11.40;6.30;;;20.10;99.90;;;;;;6101901;23;20527;-86
2022/07/31 06:32:21;;;;;;;8.10;5.60;;;20.20;99.90;;;;;;6125481;23;20195;-87
2022/07/31 06:34:50;;;;;;;7.17;4.93;;;20.20;99.90;;;;;;6125858;23;20637;-85
2022/07/31 06:37:15;;;;;;;8.67;5.67;;;20.20;99.90;;;;;;6125480;23;20242;-85
2022/07/31 06:39:41;;;;;;;8.70;5.90;;;20.10;99.90;;;;;;6125833;23;20255;-83
2022/07/31 06:42:07;;;;;;;7.77;4.93;;;20.00;99.90;;;;;;6077794;23;20164;-85
2022/07/31 06:44:33;;;;;;;8.80;6.27;;;20.10;99.90;;;;;;6077902;23;20167;-84
2022/07/31 06:46:59;;;;;;;6.73;5.43;;;20.10;99.90;;;;;;6125613;23;20279;-85
2022/07/31 06:49:29;;;;;;;7.63;6.00;;;20.20;99.90;;;;;;6077014;23;20277;-85
2022/07/31 06:51:55;;;;;;;8.90;5.73;;;20.20;99.90;;;;;;6101369;23;20668;-84
2022/07/31 06:54:21;;;;;;;10.83;6.43;;;20.20;99.90;;;;;;6101118;23;20164;-85
2022/07/31 06:56:47;;;;;;;10.67;6.50;;;20.30;99.90;;;;;;6125785;23;20184;-84
2022/07/31 06:59:12;;;;;;;6.93;5.70;;;20.40;99.90;;;;;;6087395;23;20228;-87
2022/07/31 07:01:38;;;;;;;11.23;6.57;;;20.50;99.90;;;;;;6077942;23;20199;-86
2022/07/31 07:04:04;;;;;;;8.70;6.60;;;20.50;99.90;;;;;;6077447;23;20195;-85
2022/07/31 07:06:30;;;;;;;9.33;6.10;;;20.60;99.90;;;;;;6126134;23;20267;-86
2022/07/31 07:08:56;;;;;;;7.13;5.93;;;20.60;99.90;;;;;;6101995;23;20164;-85
2022/07/31 07:11:22;;;;;;;9.03;7.10;;;20.60;99.90;;;;;;6077034;23;20199;-86
2022/07/31 07:13:48;;;;;;;11.70;6.20;;;20.60;99.90;;;;;;6077327;23;20732;-85
2022/07/31 07:16:14;;;;;;;9.63;6.47;;;20.60;99.90;;;;;;6077269;23;20534;-85
2022/07/31 07:18:41;;;;;;;9.33;6.57;;;20.70;99.90;;;;;;6100830;23;20266;-85
2022/07/31 07:21:07;;;;;;;7.37;5.70;;;20.70;99.90;;;;;;6126368;23;20167;-86
2022/07/31 07:23:33;;;;;;;10.33;6.27;;;20.70;99.90;;;;;;6125483;23;20159;-86
2022/07/31 07:25:59;;;;;;;7.70;6.90;;;20.80;99.90;;;;;;6100970;23;20204;-85
2022/07/31 07:28:25;;;;;;;13.53;6.30;;;20.80;99.90;;;;;;6075440;23;20626;-87
2022/07/31 07:30:50;;;;;;;8.93;7.03;;;20.80;99.90;;;;;;6075630;23;20192;-85
2022/07/31 07:33:16;;;;;;;8.97;6.47;;;20.80;99.90;;;;;;6100565;23;20160;-85
2022/07/31 07:35:42;;;;;;;7.73;6.33;;;20.80;99.90;;;;;;6076945;23;20161;-85
2022/07/31 07:38:08;;;;;;;10.20;6.67;;;20.80;99.90;;;;;;6100268;23;20208;-86
2022/07/31 07:40:34;;;;;;;8.33;5.93;;;20.70;99.90;;;;;;6099825;23;20196;-87
2022/07/31 07:43:00;;;;;;;9.93;5.67;;;20.60;99.90;;;;;;6124961;23;20192;-86
2022/07/31 07:45:26;;;;;;;8.10;5.47;;;20.70;99.90;;;;;;6124961;23;20197;-86
2022/07/31 07:47:51;;;;;;;12.37;7.00;;;20.60;99.90;;;;;;6100137;23;20488;-85
2022/07/31 07:50:17;;;;;;;9.93;6.00;;;20.70;99.90;;;;;;6076336;23;20271;-86
2022/07/31 07:52:43;;;;;;;10.97;5.63;;;20.70;99.90;;;;;;6100145;23;20649;-86
2022/07/31 07:55:09;;;;;;;8.43;6.03;;;20.60;99.90;;;;;;6076359;23;20231;-85
2022/07/31 07:57:35;;;;;;;12.47;5.33;;;20.60;99.90;;;;;;6075074;23;20196;-86
2022/07/31 08:00:05;;;;;;;7.40;5.80;;;20.60;99.90;;;;;;6076970;23;20162;-88
2022/07/31 08:02:32;;;;;;;8.07;5.87;;;20.60;99.90;;;;;;6125074;23;20612;-87
2022/07/31 08:04:59;;;;;;;10.63;5.93;;;20.60;99.90;;;;;;6124816;23;20634;-85
2022/07/31 08:07:29;;;;;;;9.17;6.20;;;20.60;99.90;;;;;;6076188;23;20191;-86
2022/07/31 08:09:56;;;;;;;10.97;6.23;;;20.70;99.90;;;;;;6123984;23;20203;-86
2022/07/31 08:12:22;;;;;;;7.07;5.93;;;20.70;99.90;;;;;;6125340;23;20152;-86
2022/07/31 08:14:48;;;;;;;9.10;6.10;;;20.70;99.90;;;;;;6101022;23;20183;-88
2022/07/31 08:17:13;;;;;;;10.47;6.10;;;20.60;99.90;;;;;;6124986;23;20203;-87
2022/07/31 08:19:40;;;;;;;13.57;6.20;;;20.50;99.90;;;;;;6100598;23;20204;-87
2022/07/31 08:22:06;;;;;;;11.50;6.57;;;20.50;99.90;;;;;;6125050;23;20672;-87
2022/07/31 08:24:32;;;;;;;8.23;6.57;;;20.50;99.90;;;;;;6100191;23;20275;-88
2022/07/31 08:29:44;;;;;;;14.03;6.27;;;20.60;99.90;;;;;;6125272;23;20175;-87
2022/07/31 08:32:10;;;;;;;10.20;6.00;;;20.60;99.90;;;;;;6124809;23;20196;-88
2022/07/31 08:34:36;;;;;;;10.77;6.80;;;20.50;99.90;;;;;;6124915;23;20196;-88
2022/07/31 08:37:03;;;;;;;14.13;6.50;;;20.50;99.90;;;;;;6100736;23;20195;-87
2022/07/31 08:39:29;;;;;;;9.70;6.57;;;20.60;99.90;;;;;;6075979;23;20207;-88
2022/07/31 08:41:54;;;;;;;11.07;8.13;;;20.60;99.90;;;;;;6101088;23;20161;-87
2022/07/31 08:44:20;;;;;;;11.20;6.50;;;20.60;99.90;;;;;;6100587;23;20200;-90
2022/07/31 08:46:46;;;;;;;12.20;6.70;;;20.60;99.90;;;;;;6076624;23;20581;-87
2022/07/31 08:49:16;;;;;;;11.70;7.60;;;20.60;99.90;;;;;;6096473;23;20692;-87
2022/07/31 08:51:43;;;;;;;12.20;6.93;;;20.60;99.90;;;;;;6047263;23;20204;-88
2022/07/31 08:54:10;;;;;;;10.23;5.70;;;20.60;99.90;;;;;;6071385;23;20160;-88
2022/07/31 08:56:39;;;;;;;6.37;5.07;;;20.50;99.90;;;;;;6048554;23;20587;-88
2022/07/31 08:59:06;;;;;;;7.43;5.00;;;20.50;99.90;;;;;;6047534;23;20240;-89
2022/07/31 09:01:33;;;;;;;7.67;5.77;;;20.50;99.90;;;;;;6048026;23;20196;-88
2022/07/31 09:03:59;;;;;;;10.30;6.20;;;20.50;99.90;;;;;;6072135;23;20607;-87
2022/07/31 09:06:25;;;;;;;9.40;5.80;;;20.40;99.90;;;;;;6071935;23;20157;-88
2022/07/31 09:08:51;;;;;;;15.00;7.13;;;20.30;99.90;;;;;;6048837;23;20244;-87
2022/07/31 09:11:17;;;;;;;12.07;7.63;;;20.30;99.90;;;;;;6047750;23;20652;-87
2022/07/31 09:13:58;;;;;;;12.87;7.27;;;20.20;99.90;;;;;;6047746;23;20638;-87
2022/07/31 09:16:24;;;;;;;14.00;7.50;;;20.20;99.90;;;;;;6071904;23;20207;-88
2022/07/31 09:19:02;;;;;;;13.83;8.00;;;20.20;99.90;;;;;;6047669;23;20235;-88
2022/07/31 09:21:41;;;;;;;13.30;8.00;;;20.20;99.90;;;;;;6071465;23;20192;-87
2022/07/31 09:24:12;;;;;;;11.77;7.20;;;20.30;99.90;;;;;;6048117;23;20264;-88
2022/07/31 09:26:39;;;;;;;14.57;8.13;;;20.30;99.90;;;;;;6072105;23;20183;-87
2022/07/31 09:29:10;;;;;;;13.37;8.13;;;20.30;99.90;;;;;;6024645;23;20205;-86
2022/07/31 09:31:37;;;;;;;13.03;8.17;;;20.40;99.90;;;;;;6096780;23;20654;-87
2022/07/31 09:34:04;;;;;;;14.87;8.17;;;20.50;99.90;;;;;;6047708;23;20200;-86
2022/07/31 09:36:30;;;;;;;15.13;8.40;;;20.60;99.90;;;;;;6071137;23;20199;-86
2022/07/31 09:38:56;;;;;;;11.20;8.10;;;20.60;99.90;;;;;;6024503;23;20323;-86
2022/07/31 09:41:24;;;;;;;12.13;8.23;;;20.50;99.90;;;;;;6046910;23;20197;-87
2022/07/31 09:44:04;;;;;;;11.70;7.17;;;20.50;99.90;;;;;;6047346;23;20536;-86
2022/07/31 09:46:40;;;;;;;12.17;7.07;;;20.50;99.90;;;;;;6071100;23;20207;-87
2022/07/31 09:49:06;;;;;;;12.27;7.83;;;20.50;99.90;;;;;;6070928;23;20200;-86
2022/07/31 09:51:43;;;;;;;12.03;7.47;;;20.40;99.90;;;;;;6047339;23;20204;-87
2022/07/31 09:54:30;;;;;;;11.97;7.23;;;20.40;99.90;;;;;;6047408;23;20149;-87
2022/07/31 09:56:56;;;;;;;12.87;6.77;;;20.40;99.90;;;;;;6071914;23;20176;-87
2022/07/31 09:59:23;;;;;;;9.57;6.17;;;20.40;99.90;;;;;;6071017;23;20255;-86
2022/07/31 10:01:50;;;;;;;5.87;5.00;;;20.40;99.90;;;;;;6047481;23;20529;-88
2022/07/31 10:04:18;;;;;;;8.90;5.50;;;20.40;99.90;;;;;;6071279;23;20197;-87
2022/07/31 10:06:48;;;;;;;6.53;4.40;;;20.30;99.90;;;;;;6071078;23;20634;-85
2022/07/31 10:09:16;;;;;;;7.23;5.47;;;20.30;99.90;;;;;;6071375;23;20161;-87
2022/07/31 10:11:43;;;;;;;7.37;5.17;;;20.30;99.90;;;;;;6096807;23;20165;-87
2022/07/31 10:14:23;;;;;;;10.67;5.73;;;20.30;99.90;;;;;;6047534;23;20204;-87
2022/07/31 10:16:53;;;;;;;7.97;4.50;;;20.40;99.90;;;;;;6071214;23;20200;-88
2022/07/31 10:19:20;;;;;;;8.53;6.57;;;20.30;99.90;;;;;;6071180;23;20205;-86
2022/07/31 10:21:55;;;;;;;11.80;6.30;;;20.20;99.90;;;;;;6047097;23;20231;-87
2022/07/31 10:24:22;;;;;;;8.83;5.83;;;20.20;99.90;;;;;;6071360;23;20144;-87
2022/07/31 10:26:48;;;;;;;7.50;5.13;;;20.20;99.90;;;;;;6047675;23;20157;-87
2022/07/31 10:29:16;;;;;;;7.57;5.70;;;20.20;99.90;;;;;;6096188;23;20208;-87
2022/07/31 10:31:44;;;;;;;9.90;5.43;;;20.10;99.90;;;;;;6071090;23;20336;-87
2022/07/31 10:34:13;;;;;;;8.40;5.30;;;20.10;99.90;;;;;;6047514;23;20216;-86
2022/07/31 10:36:40;;;;;;;6.73;4.67;;;20.00;99.90;;;;;;6071137;23;20220;-87
2022/07/31 10:39:19;;;;;;;8.07;5.40;;;20.00;99.90;;;;;;6046699;23;20193;-87
2022/07/31 10:42:27;;;;;;;17.37;5.10;;;20.00;99.90;;;;;;6072004;23;20184;-86
2022/07/31 10:45:03;;;;;;;8.67;5.40;;;20.00;99.90;;;;;;6017958;23;20263;-87
2022/07/31 10:47:29;;;;;;;8.60;5.93;;;20.00;99.90;;;;;;6070613;23;20197;-87
2022/07/31 10:49:55;;;;;;;7.33;4.57;;;20.00;99.90;;;;;;6066412;23;20212;-86
2022/07/31 10:52:33;;;;;;;7.87;5.97;;;20.00;99.90;;;;;;6075739;23;20196;-86
2022/07/31 10:55:00;;;;;;;8.90;5.23;;;20.10;99.90;;;;;;6123972;23;20229;-87
2022/07/31 10:57:34;;;;;;;9.03;4.73;;;20.10;99.90;;;;;;6100943;23;20199;-85
2022/07/31 11:00:11;;;;;;;9.07;5.10;;;20.00;99.90;;;;;;6102033;23;20159;-87
2022/07/31 11:02:37;;;;;;;10.23;5.77;;;20.00;99.90;;;;;;6102033;23;20184;-86
2022/07/31 11:05:07;;;;;;;5.93;4.50;;;20.00;99.90;;;;;;6125472;23;20196;-85
2022/07/31 11:07:33;;;;;;;6.30;4.87;;;20.00;99.90;;;;;;6125872;23;20219;-86
2022/07/31 11:10:20;;;;;;;7.67;4.93;;;20.00;99.90;;;;;;6101570;23;20238;-86
2022/07/31 11:13:03;;;;;;;7.80;4.57;;;20.10;99.90;;;;;;6125947;23;20717;-86
2022/07/31 11:15:30;;;;;;;7.07;4.77;;;20.20;99.90;;;;;;6125525;23;20251;-87
2022/07/31 11:17:56;;;;;;;5.93;4.20;;;20.20;99.90;;;;;;6126000;23;20184;-87
2022/07/31 11:20:26;;;;;;;4.00;3.67;;;20.30;99.90;;;;;;6125504;23;20200;-86
2022/07/31 11:23:04;;;;;;;3.20;2.33;;;20.30;99.90;;;;;;6125457;23;20230;-85
2022/07/31 11:25:32;;;;;;;3.00;2.23;;;20.30;99.90;;;;;;6127165;23;20657;-86
2022/07/31 11:28:12;;;;;;;2.50;2.07;;;20.30;99.90;;;;;;6125821;23;20195;-87
2022/07/31 11:30:52;;;;;;;4.13;1.60;;;20.40;99.90;;;;;;6126058;23;20531;-87
2022/07/31 11:33:31;;;;;;;2.83;1.53;;;20.40;99.90;;;;;;6101608;23;20171;-85
2022/07/31 11:36:25;;;;;;;1.60;1.20;;;20.40;99.90;;;;;;6126147;23;20491;-87
2022/07/31 11:38:59;;;;;;;1.43;1.33;;;20.40;99.90;;;;;;6125704;23;20192;-85
2022/07/31 11:41:29;;;;;;;0.90;0.83;;;20.40;99.90;;;;;;6125250;23;20236;-85
2022/07/31 11:43:56;;;;;;;1.50;1.40;;;20.50;99.90;;;;;;6125519;23;20191;-86
2022/07/31 11:46:32;;;;;;;1.70;0.90;;;20.50;99.90;;;;;;6123391;23;20192;-86
2022/07/31 11:48:59;;;;;;;4.03;0.87;;;20.60;99.90;;;;;;6124072;23;20203;-85
2022/07/31 11:51:26;;;;;;;0.83;0.77;;;20.50;99.90;;;;;;6076688;23;20276;-85
2022/07/31 11:53:54;;;;;;;4.47;0.90;;;20.50;99.90;;;;;;6124832;23;20247;-86
2022/07/31 11:56:20;;;;;;;1.17;0.90;;;20.60;99.90;;;;;;6124409;23;20728;-85
2022/07/31 11:58:53;;;;;;;0.40;0.40;;;20.70;99.90;;;;;;6099612;23;20200;-85
2022/07/31 12:01:26;;;;;;;1.13;0.67;;;20.80;99.90;;;;;;6126065;23;20192;-84
2022/07/31 12:03:51;;;;;;;1.43;0.70;;;20.70;99.90;;;;;;6125721;23;20192;-84
2022/07/31 12:06:19;;;;;;;0.70;0.40;;;20.70;99.90;;;;;;6125816;23;20279;-83
2022/07/31 12:08:46;;;;;;;0.63;0.50;;;20.70;99.90;;;;;;6076276;23;20428;-83
2022/07/31 12:11:15;;;;;;;1.00;0.77;;;20.60;99.90;;;;;;6099899;23;20645;-83
2022/07/31 12:13:45;;;;;;;0.33;0.33;;;20.70;99.90;;;;;;6124104;23;20255;-83
2022/07/31 12:16:11;;;;;;;0.87;0.50;;;20.60;99.90;;;;;;6124440;23;20705;-84
2022/07/31 12:18:59;;;;;;;1.10;0.90;;;20.70;99.90;;;;;;6098930;23;20227;-87
2022/07/31 12:21:34;;;;;;;1.10;0.83;;;20.50;99.90;;;;;;6125451;23;20144;-85
2022/07/31 12:24:00;;;;;;;1.30;1.00;;;20.50;99.90;;;;;;6123996;23;20166;-84
2022/07/31 12:26:25;;;;;;;1.50;0.90;;;20.50;99.90;;;;;;6099847;23;20222;-83
2022/07/31 12:29:03;;;;;;;1.20;1.10;;;20.40;99.90;;;;;;6124078;23;20192;-85
2022/07/31 12:31:31;;;;;;;1.60;1.40;;;20.40;99.90;;;;;;6100058;23;20211;-85
2022/07/31 12:33:57;;;;;;;1.37;1.20;;;20.50;99.90;;;;;;6099863;23;20267;-87
2022/07/31 12:36:22;;;;;;;3.00;1.70;;;20.50;99.90;;;;;;6099825;23;20676;-86
2022/07/31 12:39:03;;;;;;;1.70;1.40;;;20.60;99.90;;;;;;6124369;23;20188;-85
2022/07/31 12:41:30;;;;;;;2.77;2.17;;;20.60;99.90;;;;;;6100117;23;20691;-86
2022/07/31 12:44:10;;;;;;;2.13;1.93;;;20.80;99.90;;;;;;6124124;23;20192;-85
2022/07/31 12:46:35;;;;;;;3.50;1.50;;;20.70;99.90;;;;;;6125368;23;20270;-85
2022/07/31 12:49:02;;;;;;;2.50;1.60;;;20.70;99.90;;;;;;6099414;23;20231;-85
2022/07/31 12:51:29;;;;;;;2.37;2.13;;;20.60;99.90;;;;;;6076190;23;20203;-87
2022/07/31 12:53:55;;;;;;;3.40;2.30;;;20.60;99.90;;;;;;6100525;23;20156;-86
2022/07/31 12:56:21;;;;;;;2.17;1.90;;;20.70;99.90;;;;;;6075738;23;20219;-86
2022/07/31 12:58:46;;;;;;;2.73;2.00;;;20.60;99.90;;;;;;6075328;23;20672;-88
2022/07/31 13:01:12;;;;;;;4.00;2.93;;;20.40;99.90;;;;;;6076008;23;20212;-86
2022/07/31 13:03:38;;;;;;;4.53;2.47;;;20.50;99.90;;;;;;6075832;23;20625;-87
2022/07/31 13:06:04;;;;;;;5.00;3.27;;;20.60;99.90;;;;;;6076814;23;20241;-86
2022/07/31 13:08:29;;;;;;;4.10;3.17;;;20.80;99.90;;;;;;6098903;23;20263;-86
2022/07/31 13:10:55;;;;;;;3.13;2.60;;;20.90;99.90;;;;;;6075511;23;20672;-85
2022/07/31 13:13:22;;;;;;;5.83;3.13;;;20.70;99.90;;;;;;6075962;23;20196;-87
2022/07/31 13:15:48;;;;;;;6.77;3.13;;;20.70;99.90;;;;;;6099890;23;20708;-86
2022/07/31 13:18:13;;;;;;;3.27;2.30;;;20.70;99.90;;;;;;6099475;23;20211;-86
2022/07/31 13:20:39;;;;;;;4.73;2.33;;;20.50;99.90;;;;;;6099897;23;20160;-85
2022/07/31 13:23:05;;;;;;;3.87;2.07;;;20.50;99.90;;;;;;6123322;23;20196;-88
2022/07/31 13:25:31;;;;;;;4.87;3.47;;;20.40;99.90;;;;;;6124095;23;20192;-86
2022/07/31 13:27:57;;;;;;;9.03;3.67;;;20.60;99.90;;;;;;6075614;23;20200;-86
2022/07/31 13:30:23;;;;;;;6.27;3.60;;;20.90;99.90;;;;;;6123735;23;20164;-86
2022/07/31 13:32:49;;;;;;;3.43;2.13;;;20.90;99.90;;;;;;6100333;23;20164;-86
2022/07/31 13:35:17;;;;;;;0.80;0.80;;;20.80;99.90;;;;;;6075549;23;20250;-85
2022/07/31 13:37:43;;;;;;;2.20;1.83;;;20.60;99.90;;;;;;6075901;23;20208;-85
2022/07/31 13:40:09;;;;;;;3.23;1.77;;;20.60;99.90;;;;;;6075090;23;20195;-85
2022/07/31 13:42:34;;;;;;;3.83;2.50;;;20.70;99.90;;;;;;6075349;23;20187;-88
2022/07/31 13:45:01;;;;;;;2.63;2.10;;;20.70;99.90;;;;;;6099635;23;20570;-85
2022/07/31 13:47:26;;;;;;;3.47;2.23;;;20.80;99.90;;;;;;6075584;23;20216;-85
2022/07/31 13:49:52;;;;;;;5.27;2.50;;;20.80;99.90;;;;;;6075168;23;20219;-85
2022/07/31 13:52:18;;;;;;;2.90;2.43;;;20.90;99.90;;;;;;6075188;23;20257;-85
2022/07/31 13:54:44;;;;;;;4.07;2.63;;;21.00;99.90;;;;;;6099053;23;20225;-86
2022/07/31 13:57:09;;;;;;;4.70;2.80;;;20.90;99.90;;;;;;6098970;23;20168;-85
2022/07/31 13:59:35;;;;;;;4.03;2.63;;;20.80;99.90;;;;;;6099961;23;20196;-87
2022/07/31 14:02:01;;;;;;;5.70;2.23;;;20.60;99.90;;;;;;6075483;23;20219;-87
2022/07/31 14:04:28;;;;;;;3.87;2.63;;;20.60;99.90;;;;;;6099425;23;20275;-86
2022/07/31 14:06:53;;;;;;;6.37;2.73;;;20.70;99.90;;;;;;6099493;23;20264;-86
2022/07/31 14:09:19;;;;;;;5.93;3.30;;;21.00;99.90;;;;;;6074838;23;20168;-87
2022/07/31 14:11:45;;;;;;;5.97;2.97;;;21.00;99.90;;;;;;6099776;23;20164;-86
2022/07/31 14:14:11;;;;;;;5.67;3.33;;;21.20;99.90;;;;;;6123764;23;20222;-86
2022/07/31 14:16:36;;;;;;;4.97;3.10;;;21.00;99.90;;;;;;6075654;23;20642;-86
2022/07/31 14:19:02;;;;;;;5.27;3.10;;;20.90;99.90;;;;;;6098747;23;20212;-85
2022/07/31 14:21:28;;;;;;;5.97;2.73;;;21.00;99.90;;;;;;6123441;23;20216;-87
2022/07/31 14:23:54;;;;;;;3.30;2.20;;;21.10;99.90;;;;;;6076109;23;20192;-86
2022/07/31 14:26:19;;;;;;;5.57;2.67;;;21.20;99.90;;;;;;6074681;23;20223;-86
2022/07/31 14:28:45;;;;;;;4.73;3.57;;;21.40;99.90;;;;;;6075259;23;20196;-86
2022/07/31 14:31:13;;;;;;;4.43;2.87;;;21.60;99.90;;;;;;6099879;23;20725;-85
2022/07/31 14:33:39;;;;;;;4.03;3.03;;;21.60;99.90;;;;;;6100922;23;20247;-86
2022/07/31 14:36:05;;;;;;;5.57;3.30;;;21.60;99.90;;;;;;6077833;23;20592;-86
2022/07/31 14:38:31;;;;;;;8.27;2.93;;;21.70;99.90;;;;;;6077502;23;20211;-85
2022/07/31 14:40:56;;;;;;;8.03;2.67;;;21.60;99.90;;;;;;6076739;23;20532;-87